Airfield and Fleet Status

Saturday 24 August 2019

Webcam – SSW (hi-res timelapse)

Webcam SSWGround state:   good.

Two Seaters 

K-21 – KFY
K-21 – HTV New panel Mics fitted. Request feedback.
Perkoz – PZ
Puchacz – JEC U/S. U/S broken rear canopy latch.
Falke G-BODU
  (✔ = Serviceable)

Webcam – WSW (hi-res timelapse)

Webcam WSWPictures last updated: 23 August 2019 @20:57

Single Seaters 

Junior – HEK
Junior – HDU
ASW24 – FLY
Pegasus – FVV U/S. U/S.
Discus WL – DM
ASW19 – CU

Weather – at Cambridge Airport (EGSC)

Valid: Yesterday at 1650Z
Temp / Dewpoint: 26° / 15° C
Cloud: 1 – 2 oktas at 4,800 ft
Wind: 160° – 11 kt
Visibility: More than 10Km
24hr QNH trend: Surface Pressure Trend1022 hPa
(source: ADDS)
GRL weather station Local weather

Notes from the office

&nbsp

Winch

Skylaunch ‘S’ preferred winch to use “S”.
Skylaunch ‘T’ preferred winch to use “S”.

Tugs

Robin G-OCGC Serviceable.
Robin G-ELSB Serviceable .

Cambridge METAR & TAF

Available data for EGSC from the past 2 hours
CAMBRIDGE

Stansted METAR & TAF

Available data for EGSS from the past 2 hours
STANSTED AIRPORT
Metar
EGSS 240220Z AUTO 11003KT 8000 NCD 13/11 Q1021

02:20 UTC

Wind: 110° 3kt

Visibility: 8000 m

Sky:

Temp: 13 deg C / 55.4 deg F

Dewpoint: 11 deg C / 51.8 deg F

Pressure: 1021 hPa

TAF
TAF AMD EGSS 240040Z 2400/2506 13005KT CAVOK TEMPO 2400/2408 8000 PROB30 2402/2406 3000 BR PROB30 2503/2506 8000

Live Gliding Map

This map is produced by the Open Glider Network